Cathlamet, Washington
Current Conditions -  °F | °C
As of 5:15 PM on Sunday 23 Nov 2014 (Local Time) from KKLS Reporting Station
Few Clouds Few Clouds  
Wind Chill:   Ceiling: Unl
Heat Index:   Visibility: 10mi
Dew Point:   Wind: 5mph
Humidity: 87%   Direction: 130°SE
Pressure: 30.31"   Gusts: NA
Location:  46.2°N, 123.38°W
Report Text: KKLS 240115Z 13004KT 10SM FEW047 09/07 A3031 RMK AO1
Loading
Personal Weather Stations






























Interactive Weather Map New forecast layout! Learn more

10-Day Weather Forecast

Advertisements
Track Severe Weather on mobile